Sligo Airport - TAF
(Terminal Area Forecast)

Issued at 08:21 UTC on Sun. 12-Jul-20

--- METARS(SA) ---

METAR EISG(SLIGO) 120800Z 17006KT 130V200 CAVOK 13/09 Q1025 =

--- TAFS() ---

TAF EISG(SLIGO) 120800Z 1209/1218 16006KT 9999 FEW012 SCT030 BECMG

1210/1212 18012KT -RA BKN012 TEMPO 1213/1218 4000 -DZRA BKN007 =

--- SIGMETS(WS) ---

IE - No VALID SIGMETS/Warnings FOR THIS AREA

--- SIGMETS Volcanic(WV) ---

IE - No VALID SIGMETS/Warnings FOR THIS AREA

--- SIGMETS(WS) ---

UK - No VALID SIGMETS/Warnings FOR THIS AREA

Sligo Airport - METARs

Latest METARs for Sligo and Donegal Airports - updated every 30 mins